Quincy, Pennsylvania
Current Conditions -  °F | °C
As of 1:53 PM on Thursday 23 Oct 2014 (Local Time) from KRYT Reporting Station
Broken Clouds Broken Clouds  
Wind Chill: 59°   Ceiling: 3400
Heat Index: 59°   Visibility: 10mi
Dew Point: 44°   Wind: 13mph
Humidity: 58%   Direction: 340°NNW
Pressure: 29.88"   Gusts: 29mph
Location:  39.8°N, 77.57°W
Report Text: KRYT 231753Z AUTO 34011G25KT 300V020 10SM BKN034 15/07 A2988 RMK AO2 SLP118 T01500067 10150 20100 58011 $
Loading
Personal Weather Stations






























Interactive Weather Map
Tropical Storm Tracking
New forecast layout! Learn more

10-Day Weather Forecast

Advertisements
Track Severe Weather on mobile